KFCH

Fresno Chandler Executive Airport

Fresno, California, USA
METAR KFCH 211455Z AUTO 33008KT 10SM CLR 14/08 A2985 RMK A01
Observed Flight Rules
May-21 @ 14:55 UTC (6 minutes ago) Visual Flight Rules
Wind Visibility Clouds
330° at 8 knots 10 miles
  • Clear skies
Temperatures Readings
Current 14°C / 57°F
Dewpoint 8°C / 46°F
Humidity 67%
Altimeter 29.85" Hg
Pressure 1011 hPa
Elevation 85
METAR KFCH 211455Z AUTO 33008KT 10SM CLR 14/08 A2985 RMK A01
Observed Flight Rules
May-21 @ 14:55 UTC
(6 minutes ago)
VFR
Wind Visibility
330° at 8 knots 10 miles
Clouds
  • Clear skies
Temperature Dewpoint
14°C / 57°F 8°C / 46°F
Humidity Altimeter Pressure
67% 29.85" Hg 1011 hPa